createdAt,value
2023-04-18T00:00:09.108Z,94563.00
2023-04-18T00:01:09.143Z,94567.00
2023-04-18T00:02:09.276Z,94569.00
2023-04-18T00:03:09.420Z,94569.00
2023-04-18T00:04:09.424Z,94569.00
2023-04-18T00:05:09.362Z,94569.00
2023-04-18T00:06:09.300Z,94567.00
2023-04-18T00:07:09.357Z,94567.00
2023-04-18T00:08:09.371Z,94567.00
2023-04-18T00:09:09.482Z,94565.00
2023-04-18T00:10:09.450Z,94565.00
2023-04-18T00:11:09.468Z,94567.00
2023-04-18T00:12:09.510Z,94567.00
2023-04-18T00:13:09.545Z,94559.00
2023-04-18T00:14:09.571Z,94565.00
2023-04-18T00:15:09.635Z,94567.00
2023-04-18T00:16:09.636Z,94565.00
2023-04-18T00:17:09.748Z,94569.00
2023-04-18T00:18:09.735Z,94567.00
2023-04-18T00:19:09.736Z,94567.00
2023-04-18T00:20:09.791Z,94565.00
2023-04-18T00:21:09.823Z,94561.00
2023-04-18T00:22:09.861Z,94565.00
2023-04-18T00:23:11.536Z,94565.00
2023-04-18T00:24:09.896Z,94561.00
2023-04-18T00:25:09.858Z,94563.00
2023-04-18T00:26:09.844Z,94563.00
2023-04-18T00:27:09.843Z,94557.00
2023-04-18T00:28:09.870Z,94557.00
2023-04-18T00:29:09.843Z,94555.00
2023-04-18T00:30:09.840Z,94555.00
2023-04-18T00:31:09.850Z,94553.00
2023-04-18T00:32:09.825Z,94555.00
2023-04-18T00:33:09.805Z,94561.00
2023-04-18T00:34:09.829Z,94561.00
2023-04-18T00:35:09.780Z,94557.00
2023-04-18T00:36:09.781Z,94557.00
2023-04-18T00:37:09.764Z,94555.00
2023-04-18T00:38:09.767Z,94557.00
2023-04-18T00:39:09.770Z,94557.00
2023-04-18T00:40:09.756Z,94557.00
2023-04-18T00:41:09.732Z,94557.00
2023-04-18T00:42:09.740Z,94555.00
2023-04-18T00:43:09.746Z,94555.00
2023-04-18T00:44:09.743Z,94561.00
2023-04-18T00:45:09.714Z,94555.00
2023-04-18T00:46:09.733Z,94555.00
2023-04-18T00:47:09.718Z,94553.00
2023-04-18T00:48:09.687Z,94555.00
2023-04-18T00:49:09.701Z,94553.00
2023-04-18T00:50:09.699Z,94553.00
2023-04-18T00:51:09.704Z,94553.00
2023-04-18T00:52:09.682Z,94551.00
2023-04-18T00:53:09.669Z,94549.00
2023-04-18T00:54:09.683Z,94549.00
2023-04-18T00:55:09.657Z,94551.00
2023-04-18T00:56:09.629Z,94551.00
2023-04-18T00:57:09.642Z,94551.00
2023-04-18T00:58:09.623Z,94549.00
2023-04-18T00:59:09.629Z,94551.00
2023-04-18T01:00:09.630Z,94551.00
2023-04-18T01:01:09.641Z,94551.00
2023-04-18T01:02:09.614Z,94551.00
2023-04-18T01:03:09.687Z,94548.00
2023-04-18T01:04:09.716Z,94549.00
2023-04-18T01:05:09.599Z,94549.00
2023-04-18T01:06:09.555Z,94549.00
2023-04-18T01:07:09.551Z,94551.00
2023-04-18T01:08:09.544Z,94549.00
2023-04-18T01:09:09.554Z,94549.00
2023-04-18T01:10:09.555Z,94551.00
2023-04-18T01:11:09.547Z,94551.00
2023-04-18T01:12:09.539Z,94551.00
2023-04-18T01:13:09.510Z,94551.00
2023-04-18T01:14:09.528Z,94548.00
2023-04-18T01:15:09.566Z,94548.00
2023-04-18T01:16:09.653Z,94548.00
2023-04-18T01:17:09.607Z,94548.00
2023-04-18T01:18:09.657Z,94548.00
2023-04-18T01:19:09.664Z,94548.00
2023-04-18T01:20:09.712Z,94546.00
2023-04-18T01:21:09.730Z,94546.00
2023-04-18T01:22:09.760Z,94544.00
2023-04-18T01:23:09.801Z,94544.00
2023-04-18T01:24:09.827Z,94542.00
2023-04-18T01:25:09.924Z,94544.00
2023-04-18T01:26:09.913Z,94538.00
2023-04-18T01:27:09.928Z,94538.00
2023-04-18T01:28:09.979Z,94538.00
2023-04-18T01:29:10.013Z,94536.00
2023-04-18T01:30:10.069Z,94534.00
2023-04-18T01:31:10.152Z,94536.00
2023-04-18T01:32:10.111Z,94532.00
2023-04-18T01:33:10.161Z,94532.00
2023-04-18T01:34:10.201Z,94532.00
2023-04-18T01:35:10.242Z,94530.00
2023-04-18T01:36:10.269Z,94528.00
2023-04-18T01:37:10.326Z,94532.00
2023-04-18T01:38:10.369Z,94530.00
2023-04-18T01:39:10.392Z,94534.00
2023-04-18T01:40:10.442Z,94532.00
2023-04-18T01:41:10.486Z,94532.00
2023-04-18T01:42:10.501Z,94532.00
2023-04-18T01:43:10.576Z,94530.00
2023-04-18T01:44:10.604Z,94534.00
2023-04-18T01:45:10.677Z,94532.00
2023-04-18T01:46:10.685Z,94532.00
2023-04-18T01:47:10.741Z,94530.00
2023-04-18T01:48:10.724Z,94530.00
2023-04-18T01:49:10.791Z,94532.00
2023-04-18T01:50:10.817Z,94530.00
2023-04-18T01:51:10.866Z,94530.00
2023-04-18T01:52:10.878Z,94530.00
2023-04-18T01:53:10.916Z,94530.00
2023-04-18T01:54:10.960Z,94530.00
2023-04-18T01:55:10.972Z,94532.00
2023-04-18T01:56:10.997Z,94528.00
2023-04-18T01:57:11.059Z,94528.00
2023-04-18T01:58:11.044Z,94528.00
2023-04-18T01:59:11.105Z,94526.00
2023-04-18T02:00:11.131Z,94526.00
2023-04-18T02:01:11.197Z,94526.00
2023-04-18T02:02:11.285Z,94528.00
2023-04-18T02:03:11.334Z,94528.00
2023-04-18T02:04:11.294Z,94530.00
2023-04-18T02:05:11.307Z,94530.00
2023-04-18T02:06:11.515Z,94528.00
2023-04-18T02:07:11.336Z,94528.00
2023-04-18T02:08:11.351Z,94530.00
2023-04-18T02:09:11.400Z,94526.00
2023-04-18T02:10:11.415Z,94528.00
2023-04-18T02:11:11.486Z,94526.00
2023-04-18T02:12:11.472Z,94528.00
2023-04-18T02:13:11.553Z,94528.00
2023-04-18T02:14:11.818Z,94528.00
2023-04-18T02:15:11.644Z,94530.00
2023-04-18T02:16:11.682Z,94530.00
2023-04-18T02:17:11.643Z,94532.00
2023-04-18T02:18:11.688Z,94532.00
2023-04-18T02:19:11.692Z,94532.00
2023-04-18T02:20:11.739Z,94530.00
2023-04-18T02:21:11.772Z,94532.00
2023-04-18T02:22:11.786Z,94532.00
2023-04-18T02:23:11.841Z,94530.00
2023-04-18T02:24:12.109Z,94532.00
2023-04-18T02:25:11.904Z,94532.00
2023-04-18T02:26:11.951Z,94532.00
2023-04-18T02:27:11.989Z,94532.00
2023-04-18T02:28:12.009Z,94532.00
2023-04-18T02:29:12.038Z,94534.00
2023-04-18T02:30:12.084Z,94532.00
2023-04-18T02:31:12.088Z,94534.00
2023-04-18T02:32:12.256Z,94532.00
2023-04-18T02:33:12.155Z,94532.00
2023-04-18T02:34:12.359Z,94530.00
2023-04-18T02:35:12.230Z,94530.00
2023-04-18T02:36:12.257Z,94532.00
2023-04-18T02:37:12.306Z,94530.00
2023-04-18T02:38:12.307Z,94532.00
2023-04-18T02:39:12.373Z,94534.00
2023-04-18T02:40:12.383Z,94532.00
2023-04-18T02:41:12.408Z,94534.00
2023-04-18T02:42:12.459Z,94532.00
2023-04-18T02:43:12.477Z,94534.00
2023-04-18T02:44:12.776Z,94534.00
2023-04-18T02:45:12.561Z,94534.00
2023-04-18T02:46:12.612Z,94536.00
2023-04-18T02:47:12.613Z,94534.00
2023-04-18T02:48:12.731Z,94534.00
2023-04-18T02:49:12.698Z,94534.00
2023-04-18T02:50:12.719Z,94534.00
2023-04-18T02:51:12.776Z,94536.00
2023-04-18T02:52:12.785Z,94534.00
2023-04-18T02:53:12.854Z,94534.00
2023-04-18T02:54:13.144Z,94534.00
2023-04-18T02:55:12.897Z,94532.00
2023-04-18T02:56:12.933Z,94536.00
2023-04-18T02:57:12.997Z,94536.00
2023-04-18T02:58:13.015Z,94534.00
2023-04-18T02:59:13.035Z,94536.00
2023-04-18T03:00:13.068Z,94536.00
2023-04-18T03:01:13.130Z,94536.00
2023-04-18T03:02:13.211Z,94534.00
2023-04-18T03:03:13.225Z,94538.00
2023-04-18T03:04:13.610Z,94536.00
2023-04-18T03:05:13.265Z,94534.00
2023-04-18T03:06:13.287Z,94534.00
2023-04-18T03:07:13.307Z,94532.00
2023-04-18T03:08:13.351Z,94532.00
2023-04-18T03:09:13.400Z,94530.00
2023-04-18T03:10:13.428Z,94530.00
2023-04-18T03:11:13.464Z,94530.00
2023-04-18T03:12:13.510Z,94526.00
2023-04-18T03:13:13.517Z,94526.00
2023-04-18T03:14:13.642Z,94524.00
2023-04-18T03:15:13.569Z,94524.00
2023-04-18T03:16:13.658Z,94524.00
2023-04-18T03:17:13.634Z,94522.00
2023-04-18T03:18:13.676Z,94522.00
2023-04-18T03:19:13.709Z,94524.00
2023-04-18T03:20:13.728Z,94520.00
2023-04-18T03:21:13.781Z,94520.00
2023-04-18T03:22:13.800Z,94522.00
2023-04-18T03:23:13.839Z,94526.00
2023-04-18T03:24:14.055Z,94526.00
2023-04-18T03:25:13.886Z,94526.00
2023-04-18T03:26:13.974Z,94526.00
2023-04-18T03:27:13.968Z,94528.00
2023-04-18T03:28:14.003Z,94528.00
2023-04-18T03:29:14.035Z,94526.00
2023-04-18T03:30:14.083Z,94526.00
2023-04-18T03:31:14.092Z,94526.00
2023-04-18T03:32:14.107Z,94528.00
2023-04-18T03:33:14.147Z,94528.00
2023-04-18T03:34:14.363Z,94528.00
2023-04-18T03:35:14.241Z,94530.00
2023-04-18T03:36:14.279Z,94530.00
2023-04-18T03:37:14.318Z,94530.00
2023-04-18T03:38:14.327Z,94532.00
2023-04-18T03:39:14.354Z,94534.00
2023-04-18T03:40:14.420Z,94532.00
2023-04-18T03:41:14.464Z,94532.00
2023-04-18T03:42:14.474Z,94532.00
2023-04-18T03:43:14.522Z,94532.00
2023-04-18T03:44:14.858Z,94530.00
2023-04-18T03:45:14.597Z,94528.00
2023-04-18T03:46:14.695Z,94528.00
2023-04-18T03:47:14.662Z,94528.00
2023-04-18T03:48:14.678Z,94526.00
2023-04-18T03:49:14.712Z,94526.00
2023-04-18T03:50:14.741Z,94524.00
2023-04-18T03:51:14.900Z,94524.00
2023-04-18T03:52:14.841Z,94526.00
2023-04-18T03:53:14.854Z,94526.00
2023-04-18T03:54:15.097Z,94528.00
2023-04-18T03:55:14.941Z,94528.00
2023-04-18T03:56:14.962Z,94526.00
2023-04-18T03:57:15.022Z,94528.00
2023-04-18T03:58:15.051Z,94528.00
2023-04-18T03:59:15.065Z,94526.00
2023-04-18T04:00:15.123Z,94528.00
2023-04-18T04:01:15.145Z,94528.00
2023-04-18T04:02:15.286Z,94528.00
2023-04-18T04:03:15.326Z,94528.00
2023-04-18T04:04:15.657Z,94528.00
2023-04-18T04:05:15.307Z,94528.00
2023-04-18T04:06:15.339Z,94532.00
2023-04-18T04:07:15.401Z,94532.00
2023-04-18T04:08:15.405Z,94536.00
2023-04-18T04:09:15.418Z,94534.00
2023-04-18T04:10:15.454Z,94534.00
2023-04-18T04:11:15.492Z,94538.00
2023-04-18T04:12:15.548Z,94534.00
2023-04-18T04:13:15.549Z,94534.00
2023-04-18T04:14:15.766Z,94536.00
2023-04-18T04:15:15.612Z,94534.00
2023-04-18T04:16:15.699Z,94534.00
2023-04-18T04:17:15.687Z,94534.00
2023-04-18T04:18:15.746Z,94538.00
2023-04-18T04:19:15.764Z,94536.00
2023-04-18T04:20:15.816Z,94538.00
2023-04-18T04:21:15.846Z,94540.00
2023-04-18T04:22:15.881Z,94538.00
2023-04-18T04:23:15.917Z,94540.00
2023-04-18T04:24:16.194Z,94542.00
2023-04-18T04:25:15.999Z,94546.00
2023-04-18T04:26:16.035Z,94544.00
2023-04-18T04:27:16.056Z,94546.00
2023-04-18T04:28:16.104Z,94546.00
2023-04-18T04:29:16.133Z,94546.00
2023-04-18T04:30:16.161Z,94544.00
2023-04-18T04:31:16.330Z,94544.00
2023-04-18T04:32:16.237Z,94546.00
2023-04-18T04:33:16.328Z,94548.00
2023-04-18T04:34:16.427Z,94548.00
2023-04-18T04:35:16.353Z,94548.00
2023-04-18T04:36:18.587Z,94548.00
2023-04-18T04:37:16.628Z,94549.00
2023-04-18T04:38:16.656Z,94549.00
2023-04-18T04:39:16.695Z,94551.00
2023-04-18T04:40:16.734Z,94551.00
2023-04-18T04:41:16.771Z,94551.00
2023-04-18T04:42:16.791Z,94551.00
2023-04-18T04:43:16.839Z,94553.00
2023-04-18T04:44:16.940Z,94555.00
2023-04-18T04:45:16.917Z,94553.00
2023-04-18T04:46:16.994Z,94555.00
2023-04-18T04:47:17.004Z,94555.00
2023-04-18T04:48:17.027Z,94557.00
2023-04-18T04:49:17.058Z,94557.00
2023-04-18T04:50:17.112Z,94561.00
2023-04-18T04:51:17.149Z,94567.00
2023-04-18T04:52:17.155Z,94565.00
2023-04-18T04:53:17.189Z,94569.00
2023-04-18T04:54:17.263Z,94571.00
2023-04-18T04:55:17.292Z,94571.00
2023-04-18T04:56:17.330Z,94569.00
2023-04-18T04:57:17.369Z,94571.00
2023-04-18T04:58:17.380Z,94573.00
2023-04-18T04:59:17.382Z,94571.00
2023-04-18T05:00:17.395Z,94575.00
2023-04-18T05:01:17.376Z,94575.00
2023-04-18T05:02:17.465Z,94575.00
2023-04-18T05:03:17.473Z,94573.00
2023-04-18T05:04:17.823Z,94575.00
2023-04-18T05:05:17.357Z,94575.00
2023-04-18T05:06:17.334Z,94575.00
2023-04-18T05:07:17.316Z,94575.00
2023-04-18T05:08:17.345Z,94575.00
2023-04-18T05:09:17.336Z,94573.00
2023-04-18T05:10:17.325Z,94571.00
2023-04-18T05:11:17.348Z,94575.00
2023-04-18T05:12:17.378Z,94573.00
2023-04-18T05:13:17.445Z,94575.00
2023-04-18T05:14:17.495Z,94575.00
2023-04-18T05:15:17.463Z,94577.00
2023-04-18T05:16:17.529Z,94577.00
2023-04-18T05:17:17.537Z,94577.00
2023-04-18T05:18:17.573Z,94575.00
2023-04-18T05:19:17.601Z,94579.00
2023-04-18T05:20:17.628Z,94575.00
2023-04-18T05:21:17.642Z,94577.00
2023-04-18T05:22:17.712Z,94575.00
2023-04-18T05:23:17.734Z,94577.00
2023-04-18T05:24:17.728Z,94575.00
2023-04-18T05:25:17.801Z,94577.00
2023-04-18T05:26:17.782Z,94577.00
2023-04-18T05:27:18.295Z,94579.00
2023-04-18T05:28:18.130Z,94577.00
2023-04-18T05:29:17.884Z,94579.00
2023-04-18T05:30:17.893Z,94581.00
2023-04-18T05:31:17.947Z,94581.00
2023-04-18T05:32:17.950Z,94575.00
2023-04-18T05:33:18.005Z,94583.00
2023-04-18T05:34:18.028Z,94583.00
2023-04-18T05:35:18.015Z,94579.00
2023-04-18T05:36:18.043Z,94583.00
2023-04-18T05:37:18.105Z,94585.00
2023-04-18T05:38:18.113Z,94585.00
2023-04-18T05:39:18.099Z,94585.00
2023-04-18T05:40:18.160Z,94585.00
2023-04-18T05:41:18.159Z,94585.00
2023-04-18T05:42:18.223Z,94587.00
2023-04-18T05:43:18.186Z,94585.00
2023-04-18T05:44:18.520Z,94587.00
2023-04-18T05:45:18.191Z,94583.00
2023-04-18T05:46:18.158Z,94585.00
2023-04-18T05:47:18.168Z,94587.00
2023-04-18T05:48:18.187Z,94587.00
2023-04-18T05:49:18.201Z,94589.00
2023-04-18T05:50:18.239Z,94593.00
2023-04-18T05:51:18.230Z,94591.00
2023-04-18T05:52:18.284Z,94595.00
2023-04-18T05:53:18.300Z,94598.00
2023-04-18T05:54:18.381Z,94598.00
2023-04-18T05:55:18.641Z,94598.00
2023-04-18T05:56:18.499Z,94602.00
2023-04-18T05:57:18.573Z,94602.00
2023-04-18T05:58:18.647Z,94593.00
2023-04-18T05:59:18.690Z,94596.00
2023-04-18T06:00:18.784Z,94596.00
2023-04-18T06:01:18.828Z,94600.00
2023-04-18T06:02:18.961Z,94602.00
2023-04-18T06:03:19.289Z,94606.00
2023-04-18T06:04:19.242Z,94604.00
2023-04-18T06:05:19.234Z,94604.00
2023-04-18T06:06:19.065Z,94608.00
2023-04-18T06:07:19.105Z,94608.00
2023-04-18T06:08:19.609Z,94610.00
2023-04-18T06:09:19.212Z,94610.00
2023-04-18T06:10:19.273Z,94598.00
2023-04-18T06:11:19.317Z,94600.00
2023-04-18T06:12:19.344Z,94602.00
2023-04-18T06:13:19.402Z,94602.00
2023-04-18T06:14:19.467Z,94606.00
2023-04-18T06:15:19.490Z,94610.00
2023-04-18T06:16:19.540Z,94608.00
2023-04-18T06:17:19.525Z,94610.00
2023-04-18T06:18:19.602Z,94608.00
2023-04-18T06:19:19.656Z,94612.00
2023-04-18T06:20:19.727Z,94614.00
2023-04-18T06:21:19.798Z,94614.00
2023-04-18T06:22:19.867Z,94616.00
2023-04-18T06:23:20.143Z,94620.00
2023-04-18T06:24:19.993Z,94620.00
2023-04-18T06:25:20.017Z,94622.00
2023-04-18T06:26:20.077Z,94622.00
2023-04-18T06:27:30.507Z,94626.00
2023-04-18T06:28:21.143Z,94622.00
2023-04-18T06:29:20.091Z,94626.00
2023-04-18T06:30:20.118Z,94624.00
2023-04-18T06:31:20.118Z,94616.00
2023-04-18T06:32:20.106Z,94614.00
2023-04-18T06:33:20.123Z,94618.00
2023-04-18T06:34:20.106Z,94614.00
2023-04-18T06:35:20.048Z,94616.00
2023-04-18T06:36:20.101Z,94622.00
2023-04-18T06:37:20.047Z,94620.00
2023-04-18T06:38:20.067Z,94628.00
2023-04-18T06:39:20.109Z,94628.00
2023-04-18T06:40:20.147Z,94630.00
2023-04-18T06:41:20.184Z,94630.00
2023-04-18T06:42:22.012Z,94632.00
2023-04-18T06:43:20.250Z,94632.00
2023-04-18T06:44:20.341Z,94630.00
2023-04-18T06:45:20.659Z,94630.00
2023-04-18T06:46:20.467Z,94630.00
2023-04-18T06:47:20.412Z,94630.00
2023-04-18T06:48:20.447Z,94630.00
2023-04-18T06:49:23.419Z,94630.00
2023-04-18T06:50:21.501Z,94630.00
2023-04-18T06:51:20.466Z,94628.00
2023-04-18T06:52:20.433Z,94630.00
2023-04-18T06:53:20.477Z,94632.00
2023-04-18T06:54:20.427Z,94632.00
2023-04-18T06:55:20.433Z,94632.00
2023-04-18T06:56:20.406Z,94632.00
2023-04-18T06:57:20.399Z,94628.00
2023-04-18T06:58:21.154Z,94632.00
2023-04-18T06:59:20.407Z,94630.00
2023-04-18T07:00:20.399Z,94628.00
2023-04-18T07:01:20.472Z,94628.00
2023-04-18T07:02:20.449Z,94630.00
2023-04-18T07:03:21.011Z,94628.00
2023-04-18T07:04:20.517Z,94628.00
2023-04-18T07:05:20.363Z,94630.00
2023-04-18T07:06:20.361Z,94628.00
2023-04-18T07:07:20.355Z,94628.00
2023-04-18T07:08:20.359Z,94628.00
2023-04-18T07:09:20.382Z,94626.00
2023-04-18T07:10:20.390Z,94626.00
2023-04-18T07:11:20.424Z,94628.00
2023-04-18T07:12:20.423Z,94626.00
2023-04-18T07:13:20.486Z,94626.00
2023-04-18T07:14:20.484Z,94626.00
2023-04-18T07:15:20.546Z,94626.00
2023-04-18T07:16:20.607Z,94626.00
2023-04-18T07:17:20.541Z,94626.00
2023-04-18T07:18:30.339Z,94622.00
2023-04-18T07:19:21.643Z,94622.00
2023-04-18T07:20:20.546Z,94622.00
2023-04-18T07:21:20.536Z,94624.00
2023-04-18T07:22:20.541Z,94622.00
2023-04-18T07:23:20.551Z,94622.00
2023-04-18T07:24:20.567Z,94624.00
2023-04-18T07:25:20.553Z,94612.00
2023-04-18T07:26:20.565Z,94612.00
2023-04-18T07:27:20.521Z,94610.00
2023-04-18T07:28:20.502Z,94606.00
2023-04-18T07:29:20.516Z,94606.00
2023-04-18T07:30:20.687Z,94608.00
2023-04-18T07:31:20.599Z,94608.00
2023-04-18T07:32:20.563Z,94608.00
2023-04-18T07:33:20.474Z,94608.00
2023-04-18T07:34:20.681Z,94608.00
2023-04-18T07:35:20.656Z,94610.00
2023-04-18T07:36:20.489Z,94606.00
2023-04-18T07:37:20.495Z,94608.00
2023-04-18T07:38:20.581Z,94606.00
2023-04-18T07:39:20.564Z,94612.00
2023-04-18T07:40:20.674Z,94614.00
2023-04-18T07:41:20.593Z,94612.00
2023-04-18T07:42:21.157Z,94612.00
2023-04-18T07:43:20.957Z,94614.00
2023-04-18T07:44:20.667Z,94614.00
2023-04-18T07:45:20.635Z,94616.00
2023-04-18T07:46:20.699Z,94614.00
2023-04-18T07:47:22.296Z,94616.00
2023-04-18T07:48:20.689Z,94616.00
2023-04-18T07:49:21.166Z,94616.00
2023-04-18T07:50:20.708Z,94610.00
2023-04-18T07:51:20.763Z,94614.00
2023-04-18T07:52:20.812Z,94614.00
2023-04-18T07:53:20.901Z,94614.00
2023-04-18T07:54:20.976Z,94618.00
2023-04-18T07:55:21.033Z,94614.00
2023-04-18T07:56:21.062Z,94616.00
2023-04-18T07:57:21.123Z,94614.00
2023-04-18T07:58:21.168Z,94612.00
2023-04-18T07:59:21.251Z,94612.00
2023-04-18T08:00:21.280Z,94612.00
2023-04-18T08:01:21.324Z,94614.00
2023-04-18T08:02:21.540Z,94614.00
2023-04-18T08:03:21.499Z,94614.00
2023-04-18T08:04:21.616Z,94616.00
2023-04-18T08:05:21.597Z,94612.00
2023-04-18T08:06:21.590Z,94612.00
2023-04-18T08:07:21.645Z,94610.00
2023-04-18T08:08:22.698Z,94610.00
2023-04-18T08:09:21.926Z,94610.00
2023-04-18T08:10:23.733Z,94610.00
2023-04-18T08:11:21.863Z,94610.00
2023-04-18T08:12:21.923Z,94612.00
2023-04-18T08:13:21.984Z,94612.00
2023-04-18T08:14:22.179Z,94614.00
2023-04-18T08:15:22.133Z,94616.00
2023-04-18T08:16:22.147Z,94614.00
2023-04-18T08:17:22.076Z,94614.00
2023-04-18T08:18:22.069Z,94608.00
2023-04-18T08:19:22.202Z,94604.00
2023-04-18T08:20:22.076Z,94598.00
2023-04-18T08:21:22.185Z,94598.00
2023-04-18T08:22:22.109Z,94600.00
2023-04-18T08:23:22.155Z,94598.00
2023-04-18T08:24:22.181Z,94596.00
2023-04-18T08:25:22.116Z,94598.00
2023-04-18T08:26:22.157Z,94602.00
2023-04-18T08:27:22.148Z,94598.00
2023-04-18T08:28:22.180Z,94596.00
2023-04-18T08:29:22.177Z,94595.00
2023-04-18T08:30:22.141Z,94595.00
2023-04-18T08:31:22.145Z,94591.00
2023-04-18T08:32:22.184Z,94591.00
2023-04-18T08:33:22.151Z,94589.00
2023-04-18T08:34:22.157Z,94589.00
2023-04-18T08:35:22.155Z,94587.00
2023-04-18T08:36:22.160Z,94585.00
2023-04-18T08:37:22.164Z,94587.00
2023-04-18T08:38:22.188Z,94589.00
2023-04-18T08:39:23.679Z,94593.00
2023-04-18T08:40:22.222Z,94598.00
2023-04-18T08:41:22.215Z,94593.00
2023-04-18T08:42:22.191Z,94589.00
2023-04-18T08:43:22.242Z,94591.00
2023-04-18T08:44:22.228Z,94591.00
2023-04-18T08:45:22.171Z,94593.00
2023-04-18T08:46:22.358Z,94591.00
2023-04-18T08:47:22.251Z,94591.00
2023-04-18T08:48:22.182Z,94591.00
2023-04-18T08:49:22.176Z,94589.00
2023-04-18T08:50:22.147Z,94591.00
2023-04-18T08:51:22.164Z,94589.00
2023-04-18T08:52:22.151Z,94589.00
2023-04-18T08:53:22.121Z,94591.00
2023-04-18T08:54:22.138Z,94593.00
2023-04-18T08:55:22.236Z,94589.00
2023-04-18T08:56:22.200Z,94579.00
2023-04-18T08:57:22.128Z,94587.00
2023-04-18T08:58:22.094Z,94587.00
2023-04-18T08:59:22.074Z,94587.00
2023-04-18T09:00:22.082Z,94587.00
2023-04-18T09:01:22.182Z,94587.00
2023-04-18T09:02:22.177Z,94589.00
2023-04-18T09:03:22.060Z,94587.00
2023-04-18T09:04:22.098Z,94589.00
2023-04-18T09:05:22.065Z,94593.00
2023-04-18T09:06:22.187Z,94589.00
2023-04-18T09:07:22.063Z,94595.00
2023-04-18T09:08:22.336Z,94591.00
2023-04-18T09:09:22.011Z,94585.00
2023-04-18T09:10:22.028Z,94585.00
2023-04-18T09:11:22.260Z,94585.00
2023-04-18T09:12:22.008Z,94581.00
2023-04-18T09:13:23.552Z,94585.00
2023-04-18T09:14:22.248Z,94581.00
2023-04-18T09:15:22.233Z,94581.00
2023-04-18T09:16:22.757Z,94585.00
2023-04-18T09:17:22.364Z,94585.00
2023-04-18T09:18:22.376Z,94587.00
2023-04-18T09:19:22.454Z,94579.00
2023-04-18T09:20:22.514Z,94581.00
2023-04-18T09:21:22.695Z,94581.00
2023-04-18T09:22:22.637Z,94583.00
2023-04-18T09:23:22.712Z,94585.00
2023-04-18T09:24:22.767Z,94583.00
2023-04-18T09:25:23.222Z,94581.00
2023-04-18T09:26:22.932Z,94573.00
2023-04-18T09:27:22.945Z,94565.00
2023-04-18T09:28:22.912Z,94565.00
2023-04-18T09:29:22.940Z,94567.00
2023-04-18T09:30:23.216Z,94571.00
2023-04-18T09:31:23.251Z,94565.00
2023-04-18T09:32:23.060Z,94567.00
2023-04-18T09:33:23.102Z,94565.00
2023-04-18T09:34:23.114Z,94561.00
2023-04-18T09:35:23.112Z,94567.00
2023-04-18T09:36:23.825Z,94567.00
2023-04-18T09:37:23.497Z,94563.00
2023-04-18T09:38:23.258Z,94559.00
2023-04-18T09:39:23.248Z,94563.00
2023-04-18T09:40:23.355Z,94563.00
2023-04-18T09:41:23.750Z,94559.00
2023-04-18T09:42:23.329Z,94567.00
2023-04-18T09:43:23.326Z,94569.00
2023-04-18T09:44:23.331Z,94561.00
2023-04-18T09:45:23.325Z,94561.00
2023-04-18T09:46:23.397Z,94571.00
2023-04-18T09:47:23.372Z,94559.00
2023-04-18T09:48:23.328Z,94561.00
2023-04-18T09:49:24.212Z,94565.00
2023-04-18T09:50:23.383Z,94565.00
2023-04-18T09:51:23.739Z,94555.00
2023-04-18T09:52:23.346Z,94555.00
2023-04-18T09:53:23.349Z,94553.00
2023-04-18T09:54:23.418Z,94557.00
2023-04-18T09:55:23.485Z,94553.00
2023-04-18T09:56:23.499Z,94553.00
2023-04-18T09:57:23.553Z,94557.00
2023-04-18T09:58:23.619Z,94557.00
2023-04-18T09:59:23.653Z,94553.00
2023-04-18T10:00:24.447Z,94553.00
2023-04-18T10:01:23.830Z,94555.00
2023-04-18T10:02:23.932Z,94555.00
2023-04-18T10:03:23.979Z,94551.00
2023-04-18T10:04:24.001Z,94553.00
2023-04-18T10:05:24.035Z,94553.00
2023-04-18T10:06:24.070Z,94553.00
2023-04-18T10:07:24.126Z,94555.00
2023-04-18T10:08:24.191Z,94551.00
2023-04-18T10:09:24.256Z,94551.00
2023-04-18T10:10:24.335Z,94548.00
2023-04-18T10:11:24.411Z,94549.00
2023-04-18T10:12:24.408Z,94549.00
2023-04-18T10:13:24.477Z,94546.00
2023-04-18T10:14:24.521Z,94553.00
2023-04-18T10:15:24.585Z,94542.00
2023-04-18T10:16:24.699Z,94536.00
2023-04-18T10:17:24.697Z,94540.00
2023-04-18T10:18:24.788Z,94540.00
2023-04-18T10:19:24.776Z,94542.00
2023-04-18T10:20:24.865Z,94530.00
2023-04-18T10:21:25.222Z,94536.00
2023-04-18T10:22:24.944Z,94530.00
2023-04-18T10:23:26.497Z,94532.00
2023-04-18T10:24:25.174Z,94526.00
2023-04-18T10:25:25.197Z,94522.00
2023-04-18T10:26:25.257Z,94530.00
2023-04-18T10:27:25.257Z,94520.00
2023-04-18T10:28:25.293Z,94526.00
2023-04-18T10:29:25.337Z,94528.00
2023-04-18T10:30:25.365Z,94524.00
2023-04-18T10:31:25.467Z,94526.00
2023-04-18T10:32:25.470Z,94524.00
2023-04-18T10:33:30.412Z,94526.00
2023-04-18T10:34:26.454Z,94530.00
2023-04-18T10:35:25.436Z,94526.00
2023-04-18T10:36:25.434Z,94530.00
2023-04-18T10:37:25.440Z,94532.00
2023-04-18T10:38:25.417Z,94530.00
2023-04-18T10:39:25.408Z,94526.00
2023-04-18T10:40:25.404Z,94536.00
2023-04-18T10:41:25.404Z,94528.00
2023-04-18T10:42:25.401Z,94528.00
2023-04-18T10:43:25.399Z,94520.00
2023-04-18T10:44:25.361Z,94522.00
2023-04-18T10:45:25.365Z,94520.00
2023-04-18T10:46:31.793Z,94518.00
2023-04-18T10:47:26.420Z,94522.00
2023-04-18T10:48:25.349Z,94518.00
2023-04-18T10:49:27.012Z,94512.00
2023-04-18T10:50:25.346Z,94516.00
2023-04-18T10:51:25.359Z,94518.00
2023-04-18T10:52:25.337Z,94518.00
2023-04-18T10:53:25.311Z,94518.00
2023-04-18T10:54:25.312Z,94520.00
2023-04-18T10:55:25.292Z,94514.00
2023-04-18T10:56:25.329Z,94510.00
2023-04-18T10:57:25.288Z,94510.00
2023-04-18T10:58:25.280Z,94506.00
2023-04-18T10:59:25.287Z,94502.00
2023-04-18T11:00:25.259Z,94504.00
2023-04-18T11:01:25.382Z,94501.00
2023-04-18T11:02:25.332Z,94508.00
2023-04-18T11:03:25.342Z,94506.00
2023-04-18T11:04:25.328Z,94502.00
2023-04-18T11:05:25.243Z,94501.00
2023-04-18T11:06:25.264Z,94501.00
2023-04-18T11:07:25.224Z,94502.00
2023-04-18T11:08:25.234Z,94493.00
2023-04-18T11:09:25.224Z,94491.00
2023-04-18T11:10:25.422Z,94495.00
2023-04-18T11:11:25.770Z,94491.00
2023-04-18T11:12:25.251Z,94489.00
2023-04-18T11:13:25.215Z,94489.00
2023-04-18T11:14:25.260Z,94479.00
2023-04-18T11:15:25.390Z,94481.00
2023-04-18T11:16:25.328Z,94479.00
2023-04-18T11:17:25.289Z,94483.00
2023-04-18T11:18:25.158Z,94479.00
2023-04-18T11:19:25.220Z,94475.00
2023-04-18T11:20:25.151Z,94473.00
2023-04-18T11:21:25.159Z,94475.00
2023-04-18T11:22:25.262Z,94471.00
2023-04-18T11:23:25.183Z,94473.00
2023-04-18T11:24:25.116Z,94473.00
2023-04-18T11:25:25.114Z,94473.00
2023-04-18T11:26:25.100Z,94469.00
2023-04-18T11:27:25.117Z,94469.00
2023-04-18T11:28:25.118Z,94463.00
2023-04-18T11:29:25.115Z,94467.00
2023-04-18T11:30:25.055Z,94461.00
2023-04-18T11:31:25.138Z,94461.00
2023-04-18T11:32:25.161Z,94461.00
2023-04-18T11:33:25.065Z,94463.00
2023-04-18T11:34:25.047Z,94465.00
2023-04-18T11:35:25.231Z,94463.00
2023-04-18T11:36:25.031Z,94463.00
2023-04-18T11:37:25.041Z,94465.00
2023-04-18T11:38:25.021Z,94463.00
2023-04-18T11:39:25.034Z,94461.00
2023-04-18T11:40:25.109Z,94459.00
2023-04-18T11:41:25.167Z,94467.00
2023-04-18T11:42:25.184Z,94461.00
2023-04-18T11:43:25.240Z,94465.00
2023-04-18T11:44:25.286Z,94469.00